Time,TemperatureF,DewpointF,PressureIn,WindDirection,WindDirectionDegrees,WindSpeedMPH,WindSpeedGustMPH,Humidity,HourlyPrecipIn,Conditions,Clouds,dailyrainin,SoftwareType,DateUTC
2013-10-01 00:00:00,62.6,57.7,29.83,SSW,192,0.0,0.0,84,0.00,,---,0.00,VWS V14.01,2013-10-01 07:00:00,
2013-10-01 00:01:00,62.7,57.8,29.83,SSW,192,0.0,0.0,84,0.00,,---,0.00,VWS V14.01,2013-10-01 07:01:00,
2013-10-01 00:03:00,62.6,57.7,29.83,SSW,192,0.0,0.0,84,0.00,,---,0.00,VWS V14.01,2013-10-01 07:03:00,
2013-10-01 00:06:00,62.6,57.7,29.83,SSW,192,0.0,0.0,84,0.00,,---,0.00,VWS V14.01,2013-10-01 07:06:00,
2013-10-01 00:08:00,62.6,57.7,29.83,SSW,192,0.0,0.0,84,0.00,,---,0.00,VWS V14.01,2013-10-01 07:08:00,
2013-10-01 00:11:00,62.6,57.7,29.83,SSW,192,0.0,0.0,84,0.00,,---,0.00,VWS V14.01,2013-10-01 07:11:00,
2013-10-01 00:12:00,62.4,57.5,29.83,SSW,192,0.0,0.0,84,0.00,,---,0.00,VWS V14.01,2013-10-01 07:12:00,
2013-10-01 00:13:00,62.4,57.5,29.83,SSW,192,0.0,0.0,84,0.00,,---,0.00,VWS V14.01,2013-10-01 07:13:00,
2013-10-01 00:17:00,62.4,57.5,29.83,SSW,192,0.0,0.0,84,0.00,,---,0.00,VWS V14.01,2013-10-01 07:17:00,
2013-10-01 00:18:00,62.3,57.4,29.83,SSW,192,0.0,0.0,84,0.00,,---,0.00,VWS V14.01,2013-10-01 07:18:00,
2013-10-01 00:22:00,62.3,57.4,29.83,SSW,192,0.0,0.0,84,0.00,,---,0.00,VWS V14.01,2013-10-01 07:22:00,
2013-10-01 00:23:00,62.3,57.4,29.83,SSW,192,0.0,0.0,84,0.00,,---,0.00,VWS V14.01,2013-10-01 07:23:00,
2013-10-01 00:27:00,62.3,57.7,29.83,SSW,192,0.0,0.0,85,0.00,,---,0.00,VWS V14.01,2013-10-01 07:27:00,
2013-10-01 00:28:00,62.3,57.7,29.83,SSW,192,0.0,0.0,85,0.00,,---,0.00,VWS V14.01,2013-10-01 07:28:00,
2013-10-01 00:30:00,62.3,57.4,29.83,North,0,0.0,0.0,84,0.00,,---,0.00,VWS V14.01,2013-10-01 07:30:00,
2013-10-01 00:32:00,62.3,57.4,29.83,SSW,192,0.0,0.0,84,0.00,,---,0.00,VWS V14.01,2013-10-01 07:32:00,
2013-10-01 00:33:00,62.3,57.4,29.83,SSW,192,0.0,0.0,84,0.00,,---,0.00,VWS V14.01,2013-10-01 07:33:00,
2013-10-01 00:37:00,62.3,57.4,29.83,North,0,0.0,0.0,84,0.00,,---,0.00,VWS V14.01,2013-10-01 07:37:00,
2013-10-01 00:38:00,62.3,57.4,29.83,North,0,0.0,0.0,84,0.00,,---,0.00,VWS V14.01,2013-10-01 07:38:00,
2013-10-01 00:42:00,62.3,57.4,29.83,North,0,0.0,0.0,84,0.00,,---,0.00,VWS V14.01,2013-10-01 07:42:00,
2013-10-01 00:43:00,62.3,57.4,29.83,North,0,0.0,0.0,84,0.00,,---,0.00,VWS V14.01,2013-10-01 07:43:00,
2013-10-01 00:47:00,62.3,57.4,29.83,North,0,0.0,0.0,84,0.00,,---,0.00,VWS V14.01,2013-10-01 07:47:00,
2013-10-01 00:48:00,62.3,57.4,29.83,North,0,0.0,0.0,84,0.00,,---,0.00,VWS V14.01,2013-10-01 07:48:00,
2013-10-01 00:49:00,62.3,57.4,29.83,North,0,0.0,0.0,84,0.00,,---,0.00,VWS V14.01,2013-10-01 07:49:00,
2013-10-01 00:53:00,62.1,57.2,29.83,North,0,0.0,0.0,84,0.00,,---,0.00,VWS V14.01,2013-10-01 07:53:00,
2013-10-01 00:54:00,62.1,57.2,29.83,North,0,0.0,0.0,84,0.00,,---,0.00,VWS V14.01,2013-10-01 07:54:00,
2013-10-01 00:58:00,62.1,57.2,29.83,North,0,0.0,0.0,84,0.00,,---,0.00,VWS V14.01,2013-10-01 07:58:00,
2013-10-01 00:59:00,62.1,57.2,29.83,North,0,0.0,0.0,84,0.00,,---,0.00,VWS V14.01,2013-10-01 07:59:00,
2013-10-01 01:00:00,62.1,57.2,29.83,North,0,0.0,0.0,84,0.00,,---,0.00,VWS V14.01,2013-10-01 08:00:00,
2013-10-01 01:03:00,62.3,57.4,29.83,North,0,0.0,0.0,84,0.00,,---,0.00,VWS V14.01,2013-10-01 08:03:00,
2013-10-01 01:04:00,62.1,56.9,29.83,North,0,0.0,0.0,83,0.00,,---,0.00,VWS V14.01,2013-10-01 08:04:00,
2013-10-01 01:08:00,62.3,57.4,29.83,North,0,0.0,0.0,84,0.00,,---,0.00,VWS V14.01,2013-10-01 08:08:00,
2013-10-01 01:09:00,62.4,57.5,29.83,North,0,0.0,0.0,84,0.00,,---,0.00,VWS V14.01,2013-10-01 08:09:00,
2013-10-01 01:10:00,62.4,57.5,29.83,North,0,0.0,0.0,84,0.00,,---,0.00,VWS V14.01,2013-10-01 08:10:00,
2013-10-01 01:13:00,62.4,57.5,29.83,North,0,0.0,0.0,84,0.00,,---,0.00,VWS V14.01,2013-10-01 08:13:00,
2013-10-01 01:14:00,62.6,57.7,29.83,North,0,1.0,1.0,84,0.00,,---,0.00,VWS V14.01,2013-10-01 08:14:00,
2013-10-01 01:15:00,62.6,57.7,29.83,North,0,0.0,1.0,84,0.00,,---,0.00,VWS V14.01,2013-10-01 08:15:00,
2013-10-01 01:18:00,62.7,57.8,29.83,North,0,0.0,1.0,84,0.00,,---,0.00,VWS V14.01,2013-10-01 08:18:00,
2013-10-01 01:20:00,62.7,57.8,29.83,North,0,0.0,1.0,84,0.00,,---,0.00,VWS V14.01,2013-10-01 08:20:00,
2013-10-01 01:23:00,62.7,57.8,29.84,North,3,0.0,1.0,84,0.00,,---,0.00,VWS V14.01,2013-10-01 08:23:00,
2013-10-01 01:25:00,62.7,57.8,29.84,North,3,0.0,1.0,84,0.00,,---,0.00,VWS V14.01,2013-10-01 08:25:00,
2013-10-01 01:28:00,62.7,57.5,29.84,North,6,0.0,1.0,83,0.00,,---,0.00,VWS V14.01,2013-10-01 08:28:00,
2013-10-01 01:30:00,62.7,57.5,29.84,North,7,0.0,1.0,83,0.00,,---,0.00,VWS V14.01,2013-10-01 08:30:00,
2013-10-01 01:33:00,62.7,57.5,29.84,North,6,0.0,1.0,83,0.00,,---,0.00,VWS V14.01,2013-10-01 08:33:00,
2013-10-01 01:35:00,62.6,57.4,29.84,North,7,0.0,1.0,83,0.00,,---,0.00,VWS V14.01,2013-10-01 08:35:00,
2013-10-01 01:36:00,62.6,57.4,29.84,North,6,0.0,1.0,83,0.00,,---,0.00,VWS V14.01,2013-10-01 08:36:00,
2013-10-01 01:38:00,62.6,57.4,29.84,North,6,0.0,0.0,83,0.00,,---,0.00,VWS V14.01,2013-10-01 08:38:00,
2013-10-01 01:41:00,62.6,57.4,29.84,North,6,0.0,0.0,83,0.00,,---,0.00,VWS V14.01,2013-10-01 08:41:00,
2013-10-01 01:43:00,62.4,57.2,29.84,North,6,0.0,0.0,83,0.00,,---,0.00,VWS V14.01,2013-10-01 08:43:00,
2013-10-01 01:46:00,62.4,57.5,29.84,North,6,0.0,3.0,84,0.00,,---,0.00,VWS V14.01,2013-10-01 08:46:00,
2013-10-01 01:48:00,62.4,57.5,29.84,North,6,0.0,3.0,84,0.00,,---,0.00,VWS V14.01,2013-10-01 08:48:00,
2013-10-01 01:51:00,62.3,57.4,29.84,North,6,0.0,3.0,84,0.00,,---,0.00,VWS V14.01,2013-10-01 08:51:00,
2013-10-01 01:53:00,62.3,57.4,29.84,North,6,0.0,3.0,84,0.00,,---,0.00,VWS V14.01,2013-10-01 08:53:00,
2013-10-01 01:56:00,62.3,57.4,29.84,North,6,0.0,3.0,84,0.00,,---,0.00,VWS V14.01,2013-10-01 08:56:00,
2013-10-01 01:59:00,62.3,57.4,29.84,North,6,0.0,3.0,84,0.00,,---,0.00,VWS V14.01,2013-10-01 08:59:00,
2013-10-01 02:00:00,62.3,57.4,29.85,North,6,0.0,3.0,84,0.00,,---,0.00,VWS V14.01,2013-10-01 09:00:00,
2013-10-01 02:01:00,62.3,57.4,29.84,North,6,0.0,3.0,84,0.00,,---,0.00,VWS V14.01,2013-10-01 09:01:00,
2013-10-01 02:04:00,62.3,57.4,29.84,North,6,0.0,3.0,84,0.00,,---,0.00,VWS V14.01,2013-10-01 09:04:00,
2013-10-01 02:06:00,62.3,57.4,29.85,North,6,0.0,3.0,84,0.00,,---,0.00,VWS V14.01,2013-10-01 09:06:00,
2013-10-01 02:09:00,62.1,57.2,29.85,North,6,0.0,0.0,84,0.00,,---,0.00,VWS V14.01,2013-10-01 09:09:00,
2013-10-01 02:11:00,62.1,57.2,29.85,North,6,0.0,0.0,84,0.00,,---,0.00,VWS V14.01,2013-10-01 09:11:00,
2013-10-01 02:12:00,62.1,57.2,29.85,North,7,0.0,0.0,84,0.00,,---,0.00,VWS V14.01,2013-10-01 09:12:00,
2013-10-01 02:14:00,62.1,57.2,29.85,North,7,0.0,0.0,84,0.00,,---,0.00,VWS V14.01,2013-10-01 09:14:00,
2013-10-01 02:16:00,62.1,57.2,29.85,North,7,0.0,0.0,84,0.00,,---,0.00,VWS V14.01,2013-10-01 09:16:00,
2013-10-01 02:17:00,62.1,57.2,29.85,North,7,0.0,0.0,84,0.00,,---,0.00,VWS V14.01,2013-10-01 09:17:00,
2013-10-01 02:19:00,62.1,57.2,29.85,North,7,0.0,0.0,84,0.00,,---,0.00,VWS V14.01,2013-10-01 09:19:00,
2013-10-01 02:21:00,62.1,57.2,29.84,North,6,0.0,0.0,84,0.00,,---,0.00,VWS V14.01,2013-10-01 09:21:00,
2013-10-01 02:22:00,62.1,57.2,29.84,North,6,0.0,0.0,84,0.00,,---,0.00,VWS V14.01,2013-10-01 09:22:00,
2013-10-01 02:24:00,62.1,57.2,29.84,North,6,0.0,0.0,84,0.00,,---,0.00,VWS V14.01,2013-10-01 09:24:00,
2013-10-01 02:26:00,62.0,57.1,29.84,North,6,0.0,0.0,84,0.00,,---,0.00,VWS V14.01,2013-10-01 09:26:00,
2013-10-01 02:27:00,62.0,57.1,29.84,North,6,0.0,0.0,84,0.00,,---,0.00,VWS V14.01,2013-10-01 09:27:00,
2013-10-01 02:29:00,62.0,57.1,29.84,North,6,0.0,0.0,84,0.00,,---,0.00,VWS V14.01,2013-10-01 09:29:00,
2013-10-01 02:30:00,61.8,57.2,29.84,North,6,0.0,0.0,85,0.00,,---,0.00,VWS V14.01,2013-10-01 09:30:00,
2013-10-01 02:31:00,61.8,56.9,29.84,North,6,0.0,0.0,84,0.00,,---,0.00,VWS V14.01,2013-10-01 09:31:00,
2013-10-01 02:33:00,61.8,56.9,29.84,North,6,0.0,0.0,84,0.00,,---,0.00,VWS V14.01,2013-10-01 09:33:00,
2013-10-01 02:35:00,61.8,57.2,29.84,North,6,0.0,0.0,85,0.00,,---,0.00,VWS V14.01,2013-10-01 09:35:00,
2013-10-01 02:37:00,61.8,57.2,29.84,North,6,0.0,0.0,85,0.00,,---,0.00,VWS V14.01,2013-10-01 09:37:00,
2013-10-01 02:38:00,61.8,57.2,29.84,North,6,0.0,0.0,85,0.00,,---,0.00,VWS V14.01,2013-10-01 09:38:00,
2013-10-01 02:40:00,61.8,57.2,29.84,North,6,0.0,0.0,85,0.00,,---,0.00,VWS V14.01,2013-10-01 09:40:00,
2013-10-01 02:42:00,61.8,57.2,29.84,North,6,0.0,0.0,85,0.00,,---,0.00,VWS V14.01,2013-10-01 09:42:00,
2013-10-01 02:43:00,61.8,57.2,29.84,North,6,0.0,0.0,85,0.00,,---,0.00,VWS V14.01,2013-10-01 09:43:00,
2013-10-01 02:45:00,61.8,57.2,29.84,North,6,0.0,0.0,85,0.00,,---,0.00,VWS V14.01,2013-10-01 09:45:00,
2013-10-01 02:47:00,61.8,57.2,29.84,North,6,0.0,0.0,85,0.00,,---,0.00,VWS V14.01,2013-10-01 09:47:00,
2013-10-01 02:48:00,61.8,57.2,29.84,North,6,0.0,0.0,85,0.00,,---,0.00,VWS V14.01,2013-10-01 09:48:00,
2013-10-01 02:50:00,61.8,57.2,29.84,North,6,0.0,0.0,85,0.00,,---,0.00,VWS V14.01,2013-10-01 09:50:00,
2013-10-01 02:52:00,61.8,57.2,29.84,North,6,0.0,0.0,85,0.00,,---,0.00,VWS V14.01,2013-10-01 09:52:00,
2013-10-01 02:53:00,61.8,57.2,29.84,North,6,0.0,0.0,85,0.00,,---,0.00,VWS V14.01,2013-10-01 09:53:00,
2013-10-01 02:55:00,61.8,57.2,29.84,North,6,0.0,0.0,85,0.00,,---,0.00,VWS V14.01,2013-10-01 09:55:00,
2013-10-01 02:57:00,61.8,57.2,29.84,North,6,0.0,0.0,85,0.00,,---,0.00,VWS V14.01,2013-10-01 09:57:00,
2013-10-01 02:58:00,61.8,57.2,29.84,North,6,0.0,0.0,85,0.00,,---,0.00,VWS V14.01,2013-10-01 09:58:00,
2013-10-01 03:00:00,61.6,57.0,29.84,North,4,0.0,0.0,85,0.00,,---,0.00,VWS V14.01,2013-10-01 10:00:00,
2013-10-01 03:01:00,61.6,57.0,29.84,North,6,0.0,0.0,85,0.00,,---,0.00,VWS V14.01,2013-10-01 10:01:00,
2013-10-01 03:02:00,61.6,57.0,29.84,North,6,0.0,0.0,85,0.00,,---,0.00,VWS V14.01,2013-10-01 10:02:00,
2013-10-01 03:03:00,61.6,57.0,29.84,North,6,0.0,0.0,85,0.00,,---,0.00,VWS V14.01,2013-10-01 10:03:00,
2013-10-01 03:06:00,61.6,57.0,29.84,North,4,0.0,0.0,85,0.00,,---,0.00,VWS V14.01,2013-10-01 10:06:00,
2013-10-01 03:08:00,61.6,57.0,29.84,North,4,0.0,0.0,85,0.00,,---,0.00,VWS V14.01,2013-10-01 10:08:00,
2013-10-01 03:11:00,61.5,56.6,29.84,North,6,0.0,0.0,84,0.00,,---,0.00,VWS V14.01,2013-10-01 10:11:00,
2013-10-01 03:13:00,61.5,56.6,29.84,North,6,0.0,0.0,84,0.00,,---,0.00,VWS V14.01,2013-10-01 10:13:00,
2013-10-01 03:14:00,61.5,57.0,29.84,North,6,0.0,0.0,85,0.00,,---,0.00,VWS V14.01,2013-10-01 10:14:00,
2013-10-01 03:16:00,61.5,57.0,29.84,North,6,0.0,0.0,85,0.00,,---,0.00,VWS V14.01,2013-10-01 10:16:00,
2013-10-01 03:18:00,61.5,57.0,29.84,North,6,0.0,0.0,85,0.00,,---,0.00,VWS V14.01,2013-10-01 10:18:00,
2013-10-01 03:19:00,61.5,57.0,29.84,North,6,0.0,0.0,85,0.00,,---,0.00,VWS V14.01,2013-10-01 10:19:00,
2013-10-01 03:21:00,61.5,57.0,29.83,North,6,0.0,0.0,85,0.00,,---,0.00,VWS V14.01,2013-10-01 10:21:00,
2013-10-01 03:23:00,61.5,57.0,29.83,North,6,0.0,0.0,85,0.00,,---,0.00,VWS V14.01,2013-10-01 10:23:00,
2013-10-01 03:24:00,61.5,57.0,29.83,North,6,0.0,0.0,85,0.00,,---,0.00,VWS V14.01,2013-10-01 10:24:00,
2013-10-01 03:26:00,61.5,57.0,29.83,North,6,0.0,0.0,85,0.00,,---,0.00,VWS V14.01,2013-10-01 10:26:00,
2013-10-01 03:28:00,61.5,57.0,29.83,North,6,0.0,0.0,85,0.00,,---,0.00,VWS V14.01,2013-10-01 10:28:00,
2013-10-01 03:29:00,61.5,57.0,29.83,North,6,0.0,0.0,85,0.00,,---,0.00,VWS V14.01,2013-10-01 10:29:00,
2013-10-01 03:30:00,61.3,56.8,29.84,North,6,0.0,0.0,85,0.00,,---,0.00,VWS V14.01,2013-10-01 10:30:00,
2013-10-01 03:31:00,61.3,56.8,29.83,North,6,0.0,0.0,85,0.00,,---,0.00,VWS V14.01,2013-10-01 10:31:00,
2013-10-01 03:33:00,61.3,56.8,29.83,North,6,0.0,0.0,85,0.00,,---,0.00,VWS V14.01,2013-10-01 10:33:00,
2013-10-01 03:34:00,61.3,56.8,29.83,North,6,0.0,0.0,85,0.00,,---,0.00,VWS V14.01,2013-10-01 10:34:00,
2013-10-01 03:36:00,61.3,56.8,29.84,North,6,0.0,0.0,85,0.00,,---,0.00,VWS V14.01,2013-10-01 10:36:00,
2013-10-01 03:38:00,61.5,57.0,29.84,North,6,0.0,0.0,85,0.00,,---,0.00,VWS V14.01,2013-10-01 10:38:00,
2013-10-01 03:39:00,61.5,57.0,29.84,North,6,0.0,0.0,85,0.00,,---,0.00,VWS V14.01,2013-10-01 10:39:00,
2013-10-01 03:42:00,61.5,57.0,29.84,North,6,0.0,0.0,85,0.00,,---,0.00,VWS V14.01,2013-10-01 10:42:00,
2013-10-01 03:44:00,61.5,57.0,29.84,North,6,0.0,0.0,85,0.00,,---,0.00,VWS V14.01,2013-10-01 10:44:00,
2013-10-01 03:45:00,61.5,57.0,29.84,North,6,0.0,0.0,85,0.00,,---,0.00,VWS V14.01,2013-10-01 10:45:00,
2013-10-01 03:47:00,61.3,56.8,29.84,North,6,0.0,0.0,85,0.00,,---,0.00,VWS V14.01,2013-10-01 10:47:00,
2013-10-01 03:49:00,61.3,56.8,29.84,North,6,0.0,0.0,85,0.00,,---,0.00,VWS V14.01,2013-10-01 10:49:00,
2013-10-01 03:52:00,61.3,56.8,29.84,North,6,0.0,0.0,85,0.00,,---,0.00,VWS V14.01,2013-10-01 10:52:00,
2013-10-01 03:54:00,61.3,56.8,29.84,North,6,0.0,0.0,85,0.00,,---,0.00,VWS V14.01,2013-10-01 10:54:00,
2013-10-01 03:55:00,61.3,56.8,29.84,North,6,0.0,0.0,85,0.00,,---,0.00,VWS V14.01,2013-10-01 10:55:00,
2013-10-01 03:57:00,61.3,56.8,29.84,North,6,0.0,0.0,85,0.00,,---,0.00,VWS V14.01,2013-10-01 10:57:00,
2013-10-01 03:59:00,61.2,56.7,29.84,North,6,0.0,0.0,85,0.00,,---,0.00,VWS V14.01,2013-10-01 10:59:00,
2013-10-01 04:00:00,61.2,56.7,29.84,North,6,0.0,0.0,85,0.00,,---,0.00,VWS V14.01,2013-10-01 11:00:00,
2013-10-01 04:02:00,61.2,56.7,29.84,North,6,0.0,0.0,85,0.00,,---,0.00,VWS V14.01,2013-10-01 11:02:00,
2013-10-01 04:04:00,61.0,56.5,29.84,North,6,0.0,0.0,85,0.00,,---,0.00,VWS V14.01,2013-10-01 11:04:00,
2013-10-01 04:05:00,61.0,56.5,29.84,North,6,0.0,0.0,85,0.00,,---,0.00,VWS V14.01,2013-10-01 11:05:00,
2013-10-01 04:07:00,61.0,56.5,29.84,North,6,0.0,0.0,85,0.00,,---,0.00,VWS V14.01,2013-10-01 11:07:00,
2013-10-01 04:09:00,60.9,56.4,29.84,North,6,0.0,0.0,85,0.00,,---,0.00,VWS V14.01,2013-10-01 11:09:00,
2013-10-01 04:10:00,61.0,56.5,29.84,North,6,0.0,0.0,85,0.00,,---,0.00,VWS V14.01,2013-10-01 11:10:00,
2013-10-01 04:12:00,61.0,56.5,29.84,North,6,0.0,0.0,85,0.00,,---,0.00,VWS V14.01,2013-10-01 11:12:00,
2013-10-01 04:14:00,61.0,56.5,29.84,North,6,0.0,0.0,85,0.00,,---,0.00,VWS V14.01,2013-10-01 11:14:00,
2013-10-01 04:15:00,61.0,56.5,29.84,North,6,0.0,0.0,85,0.00,,---,0.00,VWS V14.01,2013-10-01 11:15:00,
2013-10-01 04:17:00,60.9,56.4,29.84,North,6,0.0,0.0,85,0.00,,---,0.00,VWS V14.01,2013-10-01 11:17:00,
2013-10-01 04:19:00,60.9,56.4,29.84,North,6,0.0,0.0,85,0.00,,---,0.00,VWS V14.01,2013-10-01 11:19:00,
2013-10-01 04:20:00,60.9,56.7,29.84,North,6,0.0,0.0,86,0.00,,---,0.00,VWS V14.01,2013-10-01 11:20:00,
2013-10-01 04:22:00,60.7,56.5,29.84,North,6,0.0,0.0,86,0.00,,---,0.00,VWS V14.01,2013-10-01 11:22:00,
2013-10-01 04:24:00,60.7,56.5,29.84,North,6,0.0,0.0,86,0.00,,---,0.00,VWS V14.01,2013-10-01 11:24:00,
2013-10-01 04:25:00,60.7,56.5,29.84,North,6,0.0,0.0,86,0.00,,---,0.00,VWS V14.01,2013-10-01 11:25:00,
2013-10-01 04:27:00,60.7,56.5,29.84,North,6,0.0,0.0,86,0.00,,---,0.00,VWS V14.01,2013-10-01 11:27:00,
2013-10-01 04:30:00,60.5,56.3,29.84,North,6,0.0,0.0,86,0.00,,---,0.00,VWS V14.01,2013-10-01 11:30:00,
2013-10-01 04:33:00,60.5,56.3,29.84,North,6,0.0,0.0,86,0.00,,---,0.00,VWS V14.01,2013-10-01 11:33:00,
2013-10-01 04:35:00,60.4,56.2,29.84,North,6,0.0,0.0,86,0.00,,---,0.00,VWS V14.01,2013-10-01 11:35:00,
2013-10-01 04:38:00,60.4,56.2,29.84,North,6,0.0,0.0,86,0.00,,---,0.00,VWS V14.01,2013-10-01 11:38:00,
2013-10-01 04:40:00,60.5,56.3,29.84,North,6,0.0,0.0,86,0.00,,---,0.00,VWS V14.01,2013-10-01 11:40:00,
2013-10-01 04:43:00,60.5,56.3,29.84,North,6,0.0,0.0,86,0.00,,---,0.00,VWS V14.01,2013-10-01 11:43:00,
2013-10-01 04:45:00,60.5,56.3,29.84,North,4,0.0,0.0,86,0.00,,---,0.00,VWS V14.01,2013-10-01 11:45:00,
2013-10-01 04:46:00,60.5,56.3,29.84,North,4,0.0,0.0,86,0.00,,---,0.00,VWS V14.01,2013-10-01 11:46:00,
2013-10-01 04:49:00,60.4,56.2,29.84,North,6,0.0,0.0,86,0.00,,---,0.00,VWS V14.01,2013-10-01 11:49:00,
2013-10-01 04:50:00,60.4,56.2,29.84,North,6,0.0,0.0,86,0.00,,---,0.00,VWS V14.01,2013-10-01 11:50:00,
2013-10-01 04:51:00,60.2,56.0,29.84,North,4,0.0,0.0,86,0.00,,---,0.00,VWS V14.01,2013-10-01 11:51:00,
2013-10-01 04:54:00,60.2,56.0,29.84,North,6,0.0,0.0,86,0.00,,---,0.00,VWS V14.01,2013-10-01 11:54:00,
2013-10-01 04:55:00,60.2,56.0,29.84,North,6,0.0,0.0,86,0.00,,---,0.00,VWS V14.01,2013-10-01 11:55:00,
2013-10-01 04:56:00,60.2,56.0,29.84,North,6,0.0,0.0,86,0.00,,---,0.00,VWS V14.01,2013-10-01 11:56:00,
2013-10-01 04:59:00,60.2,56.0,29.84,North,7,0.0,0.0,86,0.00,,---,0.00,VWS V14.01,2013-10-01 11:59:00,
2013-10-01 05:00:00,60.2,56.0,29.84,North,7,0.0,0.0,86,0.00,,---,0.00,VWS V14.01,2013-10-01 12:00:00,
2013-10-01 05:02:00,60.1,55.9,29.84,North,7,0.0,0.0,86,0.00,,---,0.00,VWS V14.01,2013-10-01 12:02:00,
2013-10-01 05:04:00,60.1,55.9,29.84,North,7,0.0,0.0,86,0.00,,---,0.00,VWS V14.01,2013-10-01 12:04:00,
2013-10-01 05:05:00,60.1,55.9,29.84,North,6,0.0,0.0,86,0.00,,---,0.00,VWS V14.01,2013-10-01 12:05:00,
2013-10-01 05:07:00,60.1,55.9,29.84,North,6,0.0,0.0,86,0.00,,---,0.00,VWS V14.01,2013-10-01 12:07:00,
2013-10-01 05:09:00,60.1,55.9,29.84,North,7,0.0,0.0,86,0.00,,---,0.00,VWS V14.01,2013-10-01 12:09:00,
2013-10-01 05:10:00,60.1,55.9,29.84,North,7,0.0,0.0,86,0.00,,---,0.00,VWS V14.01,2013-10-01 12:10:00,
2013-10-01 05:12:00,60.1,55.9,29.84,North,6,0.0,0.0,86,0.00,,---,0.00,VWS V14.01,2013-10-01 12:12:00,
2013-10-01 05:14:00,60.1,55.9,29.84,North,6,0.0,0.0,86,0.00,,---,0.00,VWS V14.01,2013-10-01 12:14:00,
2013-10-01 05:15:00,60.1,55.9,29.84,North,6,0.0,0.0,86,0.00,,---,0.00,VWS V14.01,2013-10-01 12:15:00,
2013-10-01 05:17:00,60.1,55.9,29.84,North,6,0.0,0.0,86,0.00,,---,0.00,VWS V14.01,2013-10-01 12:17:00,
2013-10-01 05:19:00,60.1,55.9,29.84,North,6,0.0,0.0,86,0.00,,---,0.00,VWS V14.01,2013-10-01 12:19:00,
2013-10-01 05:21:00,60.1,55.9,29.84,North,6,0.0,0.0,86,0.00,,---,0.00,VWS V14.01,2013-10-01 12:21:00,
2013-10-01 05:22:00,59.9,55.7,29.84,North,6,0.0,0.0,86,0.00,,---,0.00,VWS V14.01,2013-10-01 12:22:00,
2013-10-01 05:25:00,59.9,55.7,29.84,North,6,0.0,0.0,86,0.00,,---,0.00,VWS V14.01,2013-10-01 12:25:00,
2013-10-01 05:26:00,59.9,55.7,29.84,North,6,0.0,0.0,86,0.00,,---,0.00,VWS V14.01,2013-10-01 12:26:00,
2013-10-01 05:27:00,59.9,55.7,29.84,North,6,0.0,0.0,86,0.00,,---,0.00,VWS V14.01,2013-10-01 12:27:00,
2013-10-01 05:30:00,59.9,55.7,29.84,North,6,0.0,0.0,86,0.00,,---,0.00,VWS V14.01,2013-10-01 12:30:00,
2013-10-01 05:31:00,59.9,55.7,29.84,North,6,0.0,0.0,86,0.00,,---,0.00,VWS V14.01,2013-10-01 12:31:00,
2013-10-01 05:32:00,59.9,55.7,29.84,North,6,0.0,0.0,86,0.00,,---,0.00,VWS V14.01,2013-10-01 12:32:00,
2013-10-01 05:35:00,59.9,55.7,29.84,North,6,0.0,0.0,86,0.00,,---,0.00,VWS V14.01,2013-10-01 12:35:00,
2013-10-01 05:36:00,59.9,55.7,29.84,North,6,0.0,0.0,86,0.00,,---,0.00,VWS V14.01,2013-10-01 12:36:00,
2013-10-01 05:38:00,59.9,55.7,29.84,North,6,0.0,0.0,86,0.00,,---,0.00,VWS V14.01,2013-10-01 12:38:00,
2013-10-01 05:40:00,59.8,55.6,29.84,North,6,0.0,0.0,86,0.00,,---,0.00,VWS V14.01,2013-10-01 12:40:00,
2013-10-01 05:41:00,59.8,55.6,29.84,North,6,0.0,0.0,86,0.00,,---,0.00,VWS V14.01,2013-10-01 12:41:00,
2013-10-01 05:43:00,59.9,55.7,29.84,North,6,0.0,0.0,86,0.00,,---,0.00,VWS V14.01,2013-10-01 12:43:00,
2013-10-01 05:45:00,59.9,55.7,29.84,North,6,0.0,0.0,86,0.00,,---,0.00,VWS V14.01,2013-10-01 12:45:00,
2013-10-01 05:46:00,59.9,55.7,29.84,North,6,0.0,0.0,86,0.00,,---,0.00,VWS V14.01,2013-10-01 12:46:00,
2013-10-01 05:48:00,59.9,55.7,29.84,North,6,0.0,0.0,86,0.00,,---,0.00,VWS V14.01,2013-10-01 12:48:00,
2013-10-01 05:50:00,59.8,55.6,29.84,North,6,0.0,0.0,86,0.00,,---,0.00,VWS V14.01,2013-10-01 12:50:00,
2013-10-01 05:51:00,59.8,55.6,29.85,North,6,0.0,0.0,86,0.00,,---,0.00,VWS V14.01,2013-10-01 12:51:00,
2013-10-01 05:53:00,59.6,55.4,29.85,North,6,0.0,0.0,86,0.00,,---,0.00,VWS V14.01,2013-10-01 12:53:00,
2013-10-01 05:55:00,59.6,55.4,29.85,North,6,0.0,0.0,86,0.00,,---,0.00,VWS V14.01,2013-10-01 12:55:00,
2013-10-01 05:56:00,59.6,55.4,29.85,North,6,0.0,0.0,86,0.00,,---,0.00,VWS V14.01,2013-10-01 12:56:00,
2013-10-01 05:58:00,59.5,55.3,29.85,North,6,0.0,0.0,86,0.00,,---,0.00,VWS V14.01,2013-10-01 12:58:00,
2013-10-01 06:00:00,59.3,55.1,29.85,North,6,0.0,0.0,86,0.00,,---,0.00,VWS V14.01,2013-10-01 13:00:00,
2013-10-01 06:01:00,59.5,55.3,29.85,North,6,0.0,0.0,86,0.00,,---,0.00,VWS V14.01,2013-10-01 13:01:00,
2013-10-01 06:03:00,59.3,55.1,29.85,North,6,0.0,0.0,86,0.00,,---,0.00,VWS V14.01,2013-10-01 13:03:00,
2013-10-01 06:06:00,59.3,55.1,29.85,North,6,0.0,0.0,86,0.00,,---,0.00,VWS V14.01,2013-10-01 13:06:00,
2013-10-01 06:08:00,59.3,55.1,29.85,North,6,0.0,0.0,86,0.00,,---,0.00,VWS V14.01,2013-10-01 13:08:00,
2013-10-01 06:11:00,59.2,55.0,29.85,North,6,0.0,0.0,86,0.00,,---,0.00,VWS V14.01,2013-10-01 13:11:00,
2013-10-01 06:13:00,59.2,55.0,29.85,North,6,0.0,0.0,86,0.00,,---,0.00,VWS V14.01,2013-10-01 13:13:00,
2013-10-01 06:16:00,59.3,55.1,29.85,North,6,0.0,0.0,86,0.00,,---,0.00,VWS V14.01,2013-10-01 13:16:00,
2013-10-01 06:19:00,59.3,55.1,29.85,North,6,0.0,0.0,86,0.00,,---,0.00,VWS V14.01,2013-10-01 13:19:00,
2013-10-01 06:21:00,59.3,55.1,29.86,North,6,0.0,0.0,86,0.00,,---,0.00,VWS V14.01,2013-10-01 13:21:00,
2013-10-01 06:24:00,59.3,55.4,29.86,North,6,0.0,0.0,87,0.00,,---,0.00,VWS V14.01,2013-10-01 13:24:00,
2013-10-01 06:27:00,59.6,55.7,29.86,North,6,0.0,0.0,87,0.00,,---,0.00,VWS V14.01,2013-10-01 13:27:00,
2013-10-01 06:29:00,59.6,55.7,29.86,North,6,0.0,0.0,87,0.00,,---,0.00,VWS V14.01,2013-10-01 13:29:00,
2013-10-01 06:30:00,59.6,55.7,29.86,North,6,0.0,0.0,87,0.00,,---,0.00,VWS V14.01,2013-10-01 13:30:00,
2013-10-01 06:32:00,59.6,55.7,29.86,North,6,0.0,0.0,87,0.00,,---,0.00,VWS V14.01,2013-10-01 13:32:00,
2013-10-01 06:34:00,59.6,55.7,29.86,North,6,0.0,0.0,87,0.00,,---,0.00,VWS V14.01,2013-10-01 13:34:00,
2013-10-01 06:37:00,59.6,55.7,29.86,North,6,0.0,0.0,87,0.00,,---,0.00,VWS V14.01,2013-10-01 13:37:00,
2013-10-01 06:39:00,59.6,55.7,29.86,North,6,0.0,0.0,87,0.00,,---,0.00,VWS V14.01,2013-10-01 13:39:00,
2013-10-01 06:42:00,59.6,55.4,29.86,North,6,0.0,0.0,86,0.00,,---,0.00,VWS V14.01,2013-10-01 13:42:00,
2013-10-01 06:44:00,59.5,55.3,29.86,North,6,0.0,0.0,86,0.00,,---,0.00,VWS V14.01,2013-10-01 13:44:00,
2013-10-01 06:48:00,59.5,55.6,29.86,North,6,0.0,0.0,87,0.00,,---,0.00,VWS V14.01,2013-10-01 13:48:00,
2013-10-01 06:49:00,59.6,55.7,29.86,North,6,0.0,0.0,87,0.00,,---,0.00,VWS V14.01,2013-10-01 13:49:00,
2013-10-01 06:53:00,59.8,55.9,29.86,North,6,0.0,0.0,87,0.00,,---,0.00,VWS V14.01,2013-10-01 13:53:00,
2013-10-01 06:54:00,59.8,55.9,29.86,North,6,0.0,0.0,87,0.00,,---,0.00,VWS V14.01,2013-10-01 13:54:00,
2013-10-01 06:58:00,59.8,55.9,29.86,North,6,0.0,0.0,87,0.00,,---,0.00,VWS V14.01,2013-10-01 13:58:00,
2013-10-01 06:59:00,59.8,55.9,29.86,North,6,0.0,0.0,87,0.00,,---,0.00,VWS V14.01,2013-10-01 13:59:00,
2013-10-01 07:00:00,59.8,55.6,29.86,North,6,0.0,0.0,86,0.00,,---,0.00,VWS V14.01,2013-10-01 14:00:00,
2013-10-01 07:03:00,59.9,55.7,29.86,North,6,0.0,0.0,86,0.00,,---,0.00,VWS V14.01,2013-10-01 14:03:00,
2013-10-01 07:04:00,59.9,55.7,29.86,North,6,0.0,0.0,86,0.00,,---,0.00,VWS V14.01,2013-10-01 14:04:00,
2013-10-01 07:08:00,59.8,55.6,29.86,North,6,0.0,0.0,86,0.00,,---,0.00,VWS V14.01,2013-10-01 14:08:00,
2013-10-01 07:09:00,59.8,55.9,29.86,North,6,0.0,0.0,87,0.00,,---,0.00,VWS V14.01,2013-10-01 14:09:00,
2013-10-01 07:13:00,59.8,55.6,29.86,North,6,0.0,0.0,86,0.00,,---,0.00,VWS V14.01,2013-10-01 14:13:00,
2013-10-01 07:14:00,59.8,55.6,29.86,North,6,0.0,0.0,86,0.00,,---,0.00,VWS V14.01,2013-10-01 14:14:00,
2013-10-01 07:19:00,59.8,55.6,29.86,North,6,0.0,0.0,86,0.00,,---,0.00,VWS V14.01,2013-10-01 14:19:00,
2013-10-01 07:24:00,59.9,56.0,29.87,North,6,0.0,0.0,87,0.00,,---,0.00,VWS V14.01,2013-10-01 14:24:00,
2013-10-01 07:25:00,60.1,56.2,29.87,North,6,0.0,0.0,87,0.00,,---,0.00,VWS V14.01,2013-10-01 14:25:00,
2013-10-01 07:29:00,60.2,56.0,29.87,North,6,0.0,0.0,86,0.00,,---,0.00,VWS V14.01,2013-10-01 14:29:00,
2013-10-01 07:30:00,60.4,56.5,29.87,North,6,0.0,0.0,87,0.00,,---,0.00,VWS V14.01,2013-10-01 14:30:00,
2013-10-01 07:34:00,60.7,56.8,29.87,North,6,0.0,0.0,87,0.00,,---,0.00,VWS V14.01,2013-10-01 14:34:00,
2013-10-01 07:35:00,60.9,57.0,29.87,North,6,0.0,0.0,87,0.00,,---,0.00,VWS V14.01,2013-10-01 14:35:00,
2013-10-01 07:39:00,61.3,57.4,29.88,North,6,0.0,0.0,87,0.00,,---,0.00,VWS V14.01,2013-10-01 14:39:00,
2013-10-01 07:40:00,61.3,57.4,29.88,North,6,0.0,0.0,87,0.00,,---,0.00,VWS V14.01,2013-10-01 14:40:00,
2013-10-01 07:44:00,61.6,57.4,29.88,North,6,0.0,0.0,86,0.00,,---,0.00,VWS V14.01,2013-10-01 14:44:00,
2013-10-01 07:45:00,61.6,57.4,29.88,North,6,0.0,0.0,86,0.00,,---,0.00,VWS V14.01,2013-10-01 14:45:00,
2013-10-01 07:49:00,62.0,57.5,29.88,North,6,0.0,0.0,85,0.00,,---,0.00,VWS V14.01,2013-10-01 14:49:00,
2013-10-01 07:50:00,62.0,57.5,29.88,North,6,0.0,0.0,85,0.00,,---,0.00,VWS V14.01,2013-10-01 14:50:00,
2013-10-01 07:51:00,62.0,57.5,29.89,North,6,0.0,0.0,85,0.00,,---,0.00,VWS V14.01,2013-10-01 14:51:00,
2013-10-01 07:54:00,62.0,57.5,29.89,North,6,0.0,0.0,85,0.00,,---,0.00,VWS V14.01,2013-10-01 14:54:00,
2013-10-01 07:55:00,62.0,57.5,29.89,North,6,0.0,0.0,85,0.00,,---,0.00,VWS V14.01,2013-10-01 14:55:00,
2013-10-01 07:56:00,62.1,57.5,29.89,North,6,0.0,0.0,85,0.00,,---,0.00,VWS V14.01,2013-10-01 14:56:00,
2013-10-01 07:59:00,62.4,57.5,29.89,North,6,0.0,0.0,84,0.00,,---,0.00,VWS V14.01,2013-10-01 14:59:00,
2013-10-01 08:00:00,62.4,57.5,29.89,North,6,0.0,0.0,84,0.00,,---,0.00,VWS V14.01,2013-10-01 15:00:00,
2013-10-01 08:02:00,62.6,58.0,29.89,North,6,0.0,0.0,85,0.00,,---,0.00,VWS V14.01,2013-10-01 15:02:00,
2013-10-01 08:04:00,63.1,58.2,29.89,North,6,0.0,0.0,84,0.00,,---,0.00,VWS V14.01,2013-10-01 15:04:00,
2013-10-01 08:05:00,63.1,58.2,29.89,North,6,0.0,0.0,84,0.00,,---,0.00,VWS V14.01,2013-10-01 15:05:00,
2013-10-01 08:07:00,63.4,58.5,29.89,North,6,0.0,0.0,84,0.00,,---,0.00,VWS V14.01,2013-10-01 15:07:00,
2013-10-01 08:09:00,63.7,58.8,29.89,North,6,0.0,0.0,84,0.00,,---,0.00,VWS V14.01,2013-10-01 15:09:00,
2013-10-01 08:10:00,63.9,59.0,29.89,North,6,0.0,0.0,84,0.00,,---,0.00,VWS V14.01,2013-10-01 15:10:00,
2013-10-01 08:12:00,64.2,59.3,29.89,North,6,0.0,0.0,84,0.00,,---,0.00,VWS V14.01,2013-10-01 15:12:00,
2013-10-01 08:15:00,64.5,59.2,29.89,North,6,0.0,0.0,83,0.00,,---,0.00,VWS V14.01,2013-10-01 15:15:00,
2013-10-01 08:18:00,65.2,59.9,29.89,North,6,0.0,0.0,83,0.00,,---,0.00,VWS V14.01,2013-10-01 15:18:00,
2013-10-01 08:20:00,65.5,60.2,29.89,North,6,0.0,0.0,83,0.00,,---,0.00,VWS V14.01,2013-10-01 15:20:00,
2013-10-01 08:23:00,66.0,60.3,29.89,NE,45,0.0,0.0,82,0.00,,---,0.00,VWS V14.01,2013-10-01 15:23:00,
2013-10-01 08:25:00,66.1,60.1,29.89,NE,45,0.0,0.0,81,0.00,,---,0.00,VWS V14.01,2013-10-01 15:25:00,
2013-10-01 08:28:00,66.4,60.0,29.89,NE,54,0.0,0.0,80,0.00,,---,0.00,VWS V14.01,2013-10-01 15:28:00,
2013-10-01 08:30:00,66.4,59.7,29.89,ESE,120,0.0,0.0,79,0.00,,---,0.00,VWS V14.01,2013-10-01 15:30:00,
2013-10-01 08:33:00,66.8,59.7,29.89,ESE,120,0.0,0.0,78,0.00,,---,0.00,VWS V14.01,2013-10-01 15:33:00,
2013-10-01 08:35:00,66.9,60.2,29.89,ESE,120,0.0,0.0,79,0.00,,---,0.00,VWS V14.01,2013-10-01 15:35:00,
2013-10-01 08:38:00,67.4,60.0,29.89,ESE,120,0.0,0.0,77,0.00,,---,0.00,VWS V14.01,2013-10-01 15:38:00,
2013-10-01 08:40:00,67.6,60.1,29.89,ESE,120,0.0,0.0,77,0.00,,---,0.00,VWS V14.01,2013-10-01 15:40:00,
2013-10-01 08:41:00,67.6,59.8,29.89,ESE,120,0.0,0.0,76,0.00,,---,0.00,VWS V14.01,2013-10-01 15:41:00,
2013-10-01 08:43:00,67.9,59.7,29.89,ESE,120,0.0,0.0,75,0.00,,---,0.00,VWS V14.01,2013-10-01 15:43:00,
2013-10-01 08:45:00,68.1,59.5,29.89,ESE,119,0.0,0.0,74,0.00,,---,0.00,VWS V14.01,2013-10-01 15:45:00,
2013-10-01 08:46:00,68.1,59.5,29.89,ESE,119,0.0,0.0,74,0.00,,---,0.00,VWS V14.01,2013-10-01 15:46:00,
2013-10-01 08:48:00,68.3,59.7,29.89,ESE,119,0.0,0.0,74,0.00,,---,0.00,VWS V14.01,2013-10-01 15:48:00,
2013-10-01 08:50:00,68.4,59.8,29.89,ESE,119,0.0,0.0,74,0.00,,---,0.00,VWS V14.01,2013-10-01 15:50:00,
2013-10-01 08:51:00,68.6,60.0,29.89,ESE,119,0.0,0.0,74,0.00,,---,0.00,VWS V14.01,2013-10-01 15:51:00,
2013-10-01 08:54:00,68.9,59.9,29.89,ESE,119,0.0,0.0,73,0.00,,---,0.00,VWS V14.01,2013-10-01 15:54:00,
2013-10-01 08:55:00,69.1,59.7,29.89,ESE,119,0.0,0.0,72,0.00,,---,0.00,VWS V14.01,2013-10-01 15:55:00,
2013-10-01 08:56:00,69.3,59.9,29.89,ESE,119,0.0,0.0,72,0.00,,---,0.00,VWS V14.01,2013-10-01 15:56:00,
2013-10-01 08:59:00,69.4,59.6,29.89,SE,127,0.0,0.0,71,0.00,,---,0.00,VWS V14.01,2013-10-01 15:59:00,
2013-10-01 09:00:00,68.8,59.4,29.89,SE,127,0.0,0.0,72,0.00,,---,0.00,VWS V14.01,2013-10-01 16:00:00,
2013-10-01 09:01:00,69.1,59.3,29.89,SE,127,0.0,0.0,71,0.00,,---,0.00,VWS V14.01,2013-10-01 16:01:00,
2013-10-01 09:05:00,68.9,59.5,29.89,SE,127,0.0,0.0,72,0.00,,---,0.00,VWS V14.01,2013-10-01 16:05:00,
2013-10-01 09:06:00,68.8,59.4,29.89,SE,127,0.0,0.0,72,0.00,,---,0.00,VWS V14.01,2013-10-01 16:06:00,
2013-10-01 09:10:00,68.9,59.9,29.89,SE,127,0.0,0.0,73,0.00,,---,0.00,VWS V14.01,2013-10-01 16:10:00,
2013-10-01 09:11:00,69.1,60.1,29.89,ENE,68,0.0,0.0,73,0.00,,---,0.00,VWS V14.01,2013-10-01 16:11:00,
2013-10-01 09:15:00,68.9,59.9,29.89,East,96,0.0,0.0,73,0.00,,---,0.00,VWS V14.01,2013-10-01 16:15:00,
2013-10-01 09:16:00,69.1,60.1,29.89,East,96,0.0,0.0,73,0.00,,---,0.00,VWS V14.01,2013-10-01 16:16:00,
2013-10-01 09:21:00,69.1,60.1,29.89,East,100,0.0,0.0,73,0.00,,---,0.00,VWS V14.01,2013-10-01 16:21:00,
2013-10-01 09:22:00,69.1,59.7,29.89,East,100,0.0,0.0,72,0.00,,---,0.00,VWS V14.01,2013-10-01 16:22:00,
2013-10-01 09:26:00,69.3,60.3,29.89,East,99,0.0,0.0,73,0.00,,---,0.00,VWS V14.01,2013-10-01 16:26:00,
2013-10-01 09:28:00,69.3,59.9,29.89,SE,127,0.0,0.0,72,0.00,,---,0.00,VWS V14.01,2013-10-01 16:28:00,
2013-10-01 09:30:00,68.9,59.9,29.89,SE,128,0.0,0.0,73,0.00,,---,0.00,VWS V14.01,2013-10-01 16:30:00,
2013-10-01 09:31:00,68.9,59.9,29.89,SE,137,0.0,0.0,73,0.00,,---,0.00,VWS V14.01,2013-10-01 16:31:00,
2013-10-01 09:36:00,68.9,59.9,29.89,SE,128,0.0,0.0,73,0.00,,---,0.00,VWS V14.01,2013-10-01 16:36:00,
2013-10-01 09:37:00,68.9,59.9,29.89,SE,128,0.0,0.0,73,0.00,,---,0.00,VWS V14.01,2013-10-01 16:37:00,
2013-10-01 09:41:00,69.4,60.0,29.89,SE,124,0.0,0.0,72,0.00,,---,0.00,VWS V14.01,2013-10-01 16:41:00,
2013-10-01 09:42:00,69.4,60.0,29.89,SE,124,0.0,0.0,72,0.00,,---,0.00,VWS V14.01,2013-10-01 16:42:00,
2013-10-01 09:46:00,69.4,60.0,29.89,ESE,123,0.0,0.0,72,0.00,,---,0.00,VWS V14.01,2013-10-01 16:46:00,
2013-10-01 09:47:00,69.4,60.0,29.89,ESE,123,0.0,0.0,72,0.00,,---,0.00,VWS V14.01,2013-10-01 16:47:00,
2013-10-01 09:51:00,69.6,60.2,29.89,East,85,0.0,0.0,72,0.00,,---,0.00,VWS V14.01,2013-10-01 16:51:00,
2013-10-01 09:52:00,69.8,60.4,29.89,East,85,0.0,0.0,72,0.00,,---,0.00,VWS V14.01,2013-10-01 16:52:00,
2013-10-01 09:57:00,70.4,60.2,29.89,ESE,103,0.0,0.0,70,0.00,,---,0.00,VWS V14.01,2013-10-01 16:57:00,
2013-10-01 10:00:00,70.4,59.8,29.89,East,99,0.0,0.0,69,0.00,,---,0.00,VWS V14.01,2013-10-01 17:00:00,
2013-10-01 10:02:00,70.6,60.3,29.89,SE,145,0.0,0.0,70,0.00,,---,0.00,VWS V14.01,2013-10-01 17:02:00,
2013-10-01 10:03:00,70.6,60.3,29.89,South,175,0.0,0.0,70,0.00,,---,0.00,VWS V14.01,2013-10-01 17:03:00,
2013-10-01 10:07:00,70.4,60.2,29.89,East,99,0.0,0.0,70,0.00,,---,0.00,VWS V14.01,2013-10-01 17:07:00,
2013-10-01 10:08:00,70.6,60.3,29.89,East,99,0.0,0.0,70,0.00,,---,0.00,VWS V14.01,2013-10-01 17:08:00,
2013-10-01 10:12:00,71.1,60.0,29.89,ESE,119,0.0,0.0,68,0.00,,---,0.00,VWS V14.01,2013-10-01 17:12:00,
2013-10-01 10:13:00,71.1,59.6,29.89,SE,140,0.0,0.0,67,0.00,,---,0.00,VWS V14.01,2013-10-01 17:13:00,
2013-10-01 10:17:00,71.1,59.6,29.89,ESE,120,0.0,0.0,67,0.00,,---,0.00,VWS V14.01,2013-10-01 17:17:00,
2013-10-01 10:18:00,71.1,58.8,29.89,SE,134,0.0,0.0,65,0.00,,---,0.00,VWS V14.01,2013-10-01 17:18:00,
2013-10-01 10:22:00,71.8,59.0,29.89,SE,130,0.0,0.0,64,0.00,,---,0.00,VWS V14.01,2013-10-01 17:22:00,
2013-10-01 10:23:00,71.8,58.5,29.89,SE,130,0.0,0.0,63,0.00,,---,0.00,VWS V14.01,2013-10-01 17:23:00,
2013-10-01 10:27:00,71.8,57.6,29.89,SE,128,0.0,0.0,61,0.00,,---,0.00,VWS V14.01,2013-10-01 17:27:00,
2013-10-01 10:28:00,72.0,58.3,29.89,SE,128,0.0,0.0,62,0.00,,---,0.00,VWS V14.01,2013-10-01 17:28:00,
2013-10-01 10:30:00,73.0,58.3,29.89,ESE,123,0.0,0.0,60,0.00,,---,0.00,VWS V14.01,2013-10-01 17:30:00,
2013-10-01 10:33:00,72.5,57.4,29.89,SE,124,0.0,0.0,59,0.00,,---,0.00,VWS V14.01,2013-10-01 17:33:00,
2013-10-01 10:34:00,72.7,57.6,29.89,SE,124,0.0,0.0,59,0.00,,---,0.00,VWS V14.01,2013-10-01 17:34:00,
2013-10-01 10:38:00,73.3,59.0,29.89,ESE,123,0.0,0.0,61,0.00,,---,0.00,VWS V14.01,2013-10-01 17:38:00,
2013-10-01 10:39:00,73.5,58.3,29.89,NE,40,0.0,0.0,59,0.00,,---,0.00,VWS V14.01,2013-10-01 17:39:00,
2013-10-01 10:43:00,73.5,58.8,29.89,SE,124,0.0,0.0,60,0.00,,---,0.00,VWS V14.01,2013-10-01 17:43:00,
2013-10-01 10:44:00,73.3,59.0,29.89,East,83,0.0,0.0,61,0.00,,---,0.00,VWS V14.01,2013-10-01 17:44:00,
2013-10-01 10:48:00,72.8,58.6,29.89,SE,140,0.0,0.0,61,0.00,,---,0.00,VWS V14.01,2013-10-01 17:48:00,
2013-10-01 10:49:00,72.8,58.6,29.89,SE,140,0.0,0.0,61,0.00,,---,0.00,VWS V14.01,2013-10-01 17:49:00,
2013-10-01 10:53:00,73.5,59.2,29.89,SE,145,0.0,0.0,61,0.00,,---,0.00,VWS V14.01,2013-10-01 17:53:00,
2013-10-01 10:54:00,73.5,59.2,29.89,ESE,119,0.0,0.0,61,0.00,,---,0.00,VWS V14.01,2013-10-01 17:54:00,
2013-10-01 10:58:00,73.2,58.0,29.89,ESE,114,0.0,0.0,59,0.00,,---,0.00,VWS V14.01,2013-10-01 17:58:00,
2013-10-01 10:59:00,73.2,58.0,29.89,ESE,116,0.0,0.0,59,0.00,,---,0.00,VWS V14.01,2013-10-01 17:59:00,
2013-10-01 11:00:00,73.9,57.7,29.89,ESE,112,0.0,0.0,57,0.00,,---,0.00,VWS V14.01,2013-10-01 18:00:00,
2013-10-01 11:03:00,73.5,56.9,29.89,East,85,0.0,0.0,56,0.00,,---,0.00,VWS V14.01,2013-10-01 18:03:00,
2013-10-01 11:04:00,73.5,57.3,29.89,East,96,0.0,0.0,57,0.00,,---,0.00,VWS V14.01,2013-10-01 18:04:00,
2013-10-01 11:08:00,74.2,57.5,29.89,East,99,0.0,0.0,56,0.00,,---,0.00,VWS V14.01,2013-10-01 18:08:00,
2013-10-01 11:09:00,74.2,57.5,29.89,ENE,76,0.0,0.0,56,0.00,,---,0.00,VWS V14.01,2013-10-01 18:09:00,
2013-10-01 11:13:00,74.6,57.9,29.89,South,185,0.0,0.0,56,0.00,,---,0.00,VWS V14.01,2013-10-01 18:13:00,
2013-10-01 11:14:00,74.6,57.9,29.89,SSE,168,0.0,0.0,56,0.00,,---,0.00,VWS V14.01,2013-10-01 18:14:00,
2013-10-01 11:18:00,74.4,57.7,29.89,South,191,0.0,0.0,56,0.00,,---,0.00,VWS V14.01,2013-10-01 18:18:00,
2013-10-01 11:19:00,74.4,57.7,29.89,South,191,0.0,0.0,56,0.00,,---,0.00,VWS V14.01,2013-10-01 18:19:00,
2013-10-01 11:23:00,75.1,58.3,29.89,SW,229,0.0,0.0,56,0.00,,---,0.00,VWS V14.01,2013-10-01 18:23:00,
2013-10-01 11:24:00,75.3,59.5,29.89,SSW,213,0.0,0.0,58,0.00,,---,0.00,VWS V14.01,2013-10-01 18:24:00,
2013-10-01 11:28:00,74.6,60.3,29.89,SSW,213,0.0,0.0,61,0.00,,---,0.00,VWS V14.01,2013-10-01 18:28:00,
2013-10-01 11:29:00,74.4,60.1,29.89,SSW,213,0.0,0.0,61,0.00,,---,0.00,VWS V14.01,2013-10-01 18:29:00,
2013-10-01 11:30:00,74.4,60.5,29.89,SW,215,0.0,0.0,62,0.00,,---,0.00,VWS V14.01,2013-10-01 18:30:00,
2013-10-01 11:33:00,74.0,60.6,29.89,SE,136,0.0,0.0,63,0.00,,---,0.00,VWS V14.01,2013-10-01 18:33:00,
2013-10-01 11:34:00,73.9,61.0,29.89,SW,224,0.0,0.0,64,0.00,,---,0.00,VWS V14.01,2013-10-01 18:34:00,
2013-10-01 11:35:00,73.9,61.0,29.89,SW,215,0.0,0.0,64,0.00,,---,0.00,VWS V14.01,2013-10-01 18:35:00,
2013-10-01 11:38:00,73.5,61.0,29.89,WSW,251,0.0,0.0,65,0.00,,---,0.00,VWS V14.01,2013-10-01 18:38:00,
2013-10-01 11:39:00,73.3,61.3,29.89,SSW,202,0.0,0.0,66,0.00,,---,0.00,VWS V14.01,2013-10-01 18:39:00,
2013-10-01 11:40:00,73.2,61.2,29.89,SW,223,0.0,0.0,66,0.00,,---,0.00,VWS V14.01,2013-10-01 18:40:00,
2013-10-01 11:43:00,73.3,61.3,29.89,SSW,196,0.0,0.0,66,0.00,,---,0.00,VWS V14.01,2013-10-01 18:43:00,
2013-10-01 11:44:00,72.8,60.8,29.89,SSW,196,0.0,0.0,66,0.00,,---,0.00,VWS V14.01,2013-10-01 18:44:00,
2013-10-01 11:45:00,72.8,60.8,29.89,SW,226,0.0,0.0,66,0.00,,---,0.00,VWS V14.01,2013-10-01 18:45:00,
2013-10-01 11:49:00,72.5,61.3,29.89,WSW,240,0.0,0.0,68,0.00,,---,0.00,VWS V14.01,2013-10-01 18:49:00,
2013-10-01 11:50:00,72.5,61.8,29.89,South,176,0.0,0.0,69,0.00,,---,0.00,VWS V14.01,2013-10-01 18:50:00,
2013-10-01 11:54:00,72.7,61.5,29.89,West,260,0.0,0.0,68,0.00,,---,0.00,VWS V14.01,2013-10-01 18:54:00,
2013-10-01 11:55:00,72.7,61.5,29.89,SSW,205,0.0,0.0,68,0.00,,---,0.00,VWS V14.01,2013-10-01 18:55:00,
2013-10-01 11:59:00,72.5,62.2,29.89,SSW,212,0.0,0.0,70,0.00,,---,0.00,VWS V14.01,2013-10-01 18:59:00,
2013-10-01 12:00:00,72.7,62.4,29.89,SSW,198,0.0,0.0,70,0.00,,---,0.00,VWS V14.01,2013-10-01 19:00:00,
2013-10-01 12:04:00,72.5,62.2,29.89,WSW,248,0.0,0.0,70,0.00,,---,0.00,VWS V14.01,2013-10-01 19:04:00,
2013-10-01 12:05:00,72.5,62.2,29.89,SSW,200,0.0,0.0,70,0.00,,---,0.00,VWS V14.01,2013-10-01 19:05:00,
2013-10-01 12:09:00,72.1,61.4,29.89,SW,227,0.0,0.0,69,0.00,,---,0.00,VWS V14.01,2013-10-01 19:09:00,
2013-10-01 12:10:00,72.0,61.3,29.89,SW,227,0.0,0.0,69,0.00,,---,0.00,VWS V14.01,2013-10-01 19:10:00,
2013-10-01 12:14:00,72.3,61.2,29.89,South,191,0.0,0.0,68,0.00,,---,0.00,VWS V14.01,2013-10-01 19:14:00,
2013-10-01 12:15:00,72.3,61.2,29.89,SW,215,0.0,0.0,68,0.00,,---,0.00,VWS V14.01,2013-10-01 19:15:00,
2013-10-01 12:20:00,72.8,61.6,29.89,SW,215,0.0,0.0,68,0.00,,---,0.00,VWS V14.01,2013-10-01 19:20:00,
2013-10-01 12:21:00,72.8,61.6,29.89,SSW,205,0.0,0.0,68,0.00,,---,0.00,VWS V14.01,2013-10-01 19:21:00,
2013-10-01 12:25:00,72.7,62.0,29.89,WSW,248,0.0,0.0,69,0.00,,---,0.00,VWS V14.01,2013-10-01 19:25:00,
2013-10-01 12:26:00,72.7,62.0,29.89,WSW,253,0.0,0.0,69,0.00,,---,0.00,VWS V14.01,2013-10-01 19:26:00,
2013-10-01 12:30:00,72.1,61.8,29.89,WSW,241,0.0,0.0,70,0.00,,---,0.00,VWS V14.01,2013-10-01 19:30:00,
2013-10-01 12:31:00,72.0,61.7,29.89,WSW,237,0.0,0.0,70,0.00,,---,0.00,VWS V14.01,2013-10-01 19:31:00,
2013-10-01 12:35:00,71.8,61.5,29.89,West,265,0.0,0.0,70,0.00,,---,0.00,VWS V14.01,2013-10-01 19:35:00,
2013-10-01 12:36:00,71.8,61.9,29.88,SW,230,0.0,0.0,71,0.00,,---,0.00,VWS V14.01,2013-10-01 19:36:00,
2013-10-01 12:40:00,71.6,61.3,29.88,SW,227,0.0,0.0,70,0.00,,---,0.00,VWS V14.01,2013-10-01 19:40:00,
2013-10-01 12:41:00,71.8,61.9,29.88,WSW,248,0.0,0.0,71,0.00,,---,0.00,VWS V14.01,2013-10-01 19:41:00,
2013-10-01 12:45:00,71.8,61.1,29.88,SSW,202,0.0,0.0,69,0.00,,---,0.00,VWS V14.01,2013-10-01 19:45:00,
2013-10-01 12:46:00,71.8,61.5,29.88,SSW,202,0.0,0.0,70,0.00,,---,0.00,VWS V14.01,2013-10-01 19:46:00,
2013-10-01 12:50:00,71.8,61.5,29.88,SW,232,0.0,0.0,70,0.00,,---,0.00,VWS V14.01,2013-10-01 19:50:00,
2013-10-01 12:51:00,72.0,61.7,29.88,West,274,0.0,0.0,70,0.00,,---,0.00,VWS V14.01,2013-10-01 19:51:00,
2013-10-01 12:55:00,72.7,62.0,29.88,WSW,251,0.0,0.0,69,0.00,,---,0.00,VWS V14.01,2013-10-01 19:55:00,
2013-10-01 12:56:00,72.7,61.5,29.88,WSW,240,0.0,0.0,68,0.00,,---,0.00,VWS V14.01,2013-10-01 19:56:00,
2013-10-01 13:00:00,72.1,61.4,29.88,SW,222,0.0,0.0,69,0.00,,---,0.00,VWS V14.01,2013-10-01 20:00:00,
2013-10-01 13:01:00,72.1,61.8,29.88,WSW,244,0.0,0.0,70,0.00,,---,0.00,VWS V14.01,2013-10-01 20:01:00,
2013-10-01 13:05:00,72.0,62.1,29.88,WSW,248,0.0,0.0,71,0.00,,---,0.00,VWS V14.01,2013-10-01 20:05:00,
2013-10-01 13:06:00,72.1,61.8,29.88,SW,229,0.0,0.0,70,0.00,,---,0.00,VWS V14.01,2013-10-01 20:06:00,
2013-10-01 13:10:00,72.1,61.4,29.88,SSW,213,0.0,0.0,69,0.00,,---,0.00,VWS V14.01,2013-10-01 20:10:00,
2013-10-01 13:11:00,72.1,61.4,29.88,SSW,196,0.0,0.0,69,0.00,,---,0.00,VWS V14.01,2013-10-01 20:11:00,
2013-10-01 13:15:00,72.3,61.6,29.88,SW,236,0.0,0.0,69,0.00,,---,0.00,VWS V14.01,2013-10-01 20:15:00,
2013-10-01 13:16:00,72.3,61.6,29.88,SSW,202,0.0,0.0,69,0.00,,---,0.00,VWS V14.01,2013-10-01 20:16:00,
2013-10-01 13:20:00,72.5,61.8,29.87,SW,224,0.0,0.0,69,0.00,,---,0.00,VWS V14.01,2013-10-01 20:20:00,
2013-10-01 13:21:00,72.5,61.8,29.87,WSW,258,0.0,0.0,69,0.00,,---,0.00,VWS V14.01,2013-10-01 20:21:00,
2013-10-01 13:26:00,72.1,62.2,29.87,SSW,206,0.0,0.0,71,0.00,,---,0.00,VWS V14.01,2013-10-01 20:26:00,
2013-10-01 13:30:00,71.8,61.9,29.86,SW,219,0.0,0.0,71,0.00,,---,0.00,VWS V14.01,2013-10-01 20:30:00,
2013-10-01 13:31:00,72.0,61.7,29.87,WSW,251,0.0,0.0,70,0.00,,---,0.00,VWS V14.01,2013-10-01 20:31:00,
2013-10-01 13:32:00,71.8,61.5,29.87,WSW,250,0.0,0.0,70,0.00,,---,0.00,VWS V14.01,2013-10-01 20:32:00,
2013-10-01 13:36:00,71.8,61.9,29.86,SW,229,0.0,0.0,71,0.00,,---,0.00,VWS V14.01,2013-10-01 20:36:00,
2013-10-01 13:37:00,71.8,61.9,29.86,WSW,241,0.0,0.0,71,0.00,,---,0.00,VWS V14.01,2013-10-01 20:37:00,
2013-10-01 13:41:00,71.8,61.5,29.86,WNW,294,0.0,0.0,70,0.00,,---,0.00,VWS V14.01,2013-10-01 20:41:00,
2013-10-01 13:42:00,71.8,61.5,29.86,West,274,0.0,0.0,70,0.00,,---,0.00,VWS V14.01,2013-10-01 20:42:00,
2013-10-01 13:46:00,71.8,62.3,29.86,SW,230,0.0,0.0,72,0.00,,---,0.00,VWS V14.01,2013-10-01 20:46:00,
2013-10-01 13:47:00,71.8,62.3,29.86,SW,230,0.0,0.0,72,0.00,,---,0.00,VWS V14.01,2013-10-01 20:47:00,
2013-10-01 13:52:00,72.3,62.4,29.86,WSW,256,0.0,0.0,71,0.00,,---,0.00,VWS V14.01,2013-10-01 20:52:00,
2013-10-01 13:57:00,72.5,62.2,29.86,SW,229,0.0,0.0,70,0.00,,---,0.00,VWS V14.01,2013-10-01 20:57:00,
2013-10-01 14:00:00,72.1,61.8,29.85,WSW,241,0.0,0.0,70,0.00,,---,0.00,VWS V14.01,2013-10-01 21:00:00,
2013-10-01 14:02:00,72.5,62.2,29.86,WSW,244,0.0,0.0,70,0.00,,---,0.00,VWS V14.01,2013-10-01 21:02:00,
2013-10-01 14:30:00,72.0,62.1,29.84,North,0,0.0,0.0,71,0.00,,---,0.00,VWS V14.01,2013-10-01 21:30:00,
2013-10-01 15:00:00,71.6,61.7,29.84,North,0,0.0,0.0,71,0.00,,---,0.00,VWS V14.01,2013-10-01 22:00:00,
2013-10-01 15:30:00,71.5,62.0,29.83,North,0,0.0,0.0,72,0.00,,---,0.00,VWS V14.01,2013-10-01 22:30:00,
2013-10-01 16:00:00,71.1,62.0,29.83,North,0,0.0,0.0,73,0.00,,---,0.00,VWS V14.01,2013-10-01 23:00:00,
2013-10-01 16:30:00,71.5,62.0,29.83,SW,225,2.0,18.0,72,0.00,,---,0.00,VWS V14.01,2013-10-01 23:30:00,
2013-10-01 17:00:00,70.8,61.3,29.83,SW,225,0.0,5.0,72,0.00,,---,0.00,VWS V14.01,2013-10-02 00:00:00,
2013-10-01 17:30:00,69.9,61.2,29.83,WSW,248,0.0,2.0,74,0.00,,---,0.00,VWS V14.01,2013-10-02 00:30:00,
2013-10-01 18:00:00,68.4,60.9,29.83,West,270,0.0,2.0,77,0.00,,---,0.00,VWS V14.01,2013-10-02 01:00:00,
2013-10-01 18:30:00,67.1,61.1,29.83,SW,225,0.0,5.0,81,0.00,,---,0.00,VWS V14.01,2013-10-02 01:30:00,
2013-10-01 19:00:00,66.0,60.3,29.83,WSW,248,0.0,6.0,82,0.00,,---,0.00,VWS V14.01,2013-10-02 02:00:00,
2013-10-01 19:30:00,65.5,60.5,29.84,WSW,248,0.0,6.0,84,0.00,,---,0.00,VWS V14.01,2013-10-02 02:30:00,
2013-10-01 20:00:00,65.0,60.4,29.85,WSW,248,0.0,0.0,85,0.00,,---,0.00,VWS V14.01,2013-10-02 03:00:00,
2013-10-01 20:30:00,64.5,60.2,29.86,WSW,248,0.0,1.0,86,0.00,,---,0.00,VWS V14.01,2013-10-02 03:30:00,
2013-10-01 21:00:00,64.0,59.7,29.87,WSW,248,0.0,0.0,86,0.00,,---,0.00,VWS V14.01,2013-10-02 04:00:00,
2013-10-01 21:30:00,63.9,60.0,29.87,WSW,248,0.0,0.0,87,0.00,,---,0.00,VWS V14.01,2013-10-02 04:30:00,
2013-10-01 22:00:00,63.7,59.8,29.88,WSW,248,0.0,0.0,87,0.00,,---,0.00,VWS V14.01,2013-10-02 05:00:00,
2013-10-01 22:30:00,63.2,59.6,29.88,WSW,248,0.0,1.0,88,0.00,,---,0.00,VWS V14.01,2013-10-02 05:30:00,
2013-10-01 23:00:00,62.7,59.1,29.88,WSW,248,0.0,0.0,88,0.00,,---,0.00,VWS V14.01,2013-10-02 06:00:00,
2013-10-01 23:30:00,63.7,60.1,29.88,WSW,248,0.0,0.0,88,0.00,,---,0.00,VWS V14.01,2013-10-02 06:30:00,